sensor_id;sensor_type;location;lat;lon;timestamp;pressure;altitude;pressure_sealevel;temperature;humidity
58769;BME280;44536;47.474;19.056;2023-04-07T00:01:10;100284.87;;;2.81;85.73
58769;BME280;44536;47.474;19.056;2023-04-07T00:04:13;100280.34;;;2.85;85.58
58769;BME280;44536;47.474;19.056;2023-04-07T00:07:16;100277.31;;;2.94;86.78
58769;BME280;44536;47.474;19.056;2023-04-07T00:10:18;100278.50;;;2.87;86.04
58769;BME280;44536;47.474;19.056;2023-04-07T00:13:20;100279.69;;;2.80;86.39
58769;BME280;44536;47.474;19.056;2023-04-07T00:16:23;100280.50;;;2.82;86.26
58769;BME280;44536;47.474;19.056;2023-04-07T00:19:25;100278.66;;;2.84;84.81
58769;BME280;44536;47.474;19.056;2023-04-07T00:22:28;100274.25;;;2.84;86.21
58769;BME280;44536;47.474;19.056;2023-04-07T00:25:30;100267.81;;;2.91;84.75
58769;BME280;44536;47.474;19.056;2023-04-07T00:28:33;100268.38;;;2.79;83.69
58769;BME280;44536;47.474;19.056;2023-04-07T00:31:35;100266.12;;;2.90;83.68
58769;BME280;44536;47.474;19.056;2023-04-07T00:34:37;100266.12;;;2.90;84.19
58769;BME280;44536;47.474;19.056;2023-04-07T00:37:40;100263.50;;;2.90;85.07
58769;BME280;44536;47.474;19.056;2023-04-07T00:40:43;100263.50;;;2.90;85.25
58769;BME280;44536;47.474;19.056;2023-04-07T00:43:45;100257.34;;;2.91;85.46
58769;BME280;44536;47.474;19.056;2023-04-07T00:46:47;100258.91;;;2.95;83.87
58769;BME280;44536;47.474;19.056;2023-04-07T00:49:50;100264.22;;;2.94;82.60
58769;BME280;44536;47.474;19.056;2023-04-07T00:52:52;100267.47;;;2.99;82.64
58769;BME280;44536;47.474;19.056;2023-04-07T00:55:55;100256.22;;;2.97;81.36
58769;BME280;44536;47.474;19.056;2023-04-07T00:58:58;100260.97;;;2.89;82.91
58769;BME280;44536;47.474;19.056;2023-04-07T01:09:29;100252.75;;;2.96;83.28
58769;BME280;44536;47.474;19.056;2023-04-07T01:15:49;100239.59;;;2.98;81.17
58769;BME280;44536;47.474;19.056;2023-04-07T01:18:58;100242.47;;;3.11;81.54
58769;BME280;44536;47.474;19.056;2023-04-07T01:22:07;100239.16;;;3.07;84.24
58769;BME280;44536;47.474;19.056;2023-04-07T01:25:46;100239.94;;;2.90;83.64
58769;BME280;44536;47.474;19.056;2023-04-07T01:32:25;100232.44;;;2.83;86.05
58769;BME280;44536;47.474;19.056;2023-04-07T01:35:31;100233.16;;;2.86;84.35
58769;BME280;44536;47.474;19.056;2023-04-07T01:38:34;100230.25;;;2.92;82.23
58769;BME280;44536;47.474;19.056;2023-04-07T01:41:38;100226.34;;;2.82;82.61
58769;BME280;44536;47.474;19.056;2023-04-07T01:44:42;100218.34;;;2.85;82.99
58769;BME280;44536;47.474;19.056;2023-04-07T01:47:45;100229.94;;;2.80;82.79
58769;BME280;44536;47.474;19.056;2023-04-07T01:50:49;100225.28;;;2.86;81.70
58769;BME280;44536;47.474;19.056;2023-04-07T01:53:52;100215.31;;;2.76;82.61
58769;BME280;44536;47.474;19.056;2023-04-07T01:56:55;100229.25;;;2.76;81.81
58769;BME280;44536;47.474;19.056;2023-04-07T01:59:58;100232.00;;;2.73;82.56
58769;BME280;44536;47.474;19.056;2023-04-07T02:03:07;100231.59;;;2.82;83.98
58769;BME280;44536;47.474;19.056;2023-04-07T02:06:17;100229.75;;;2.84;82.97
58769;BME280;44536;47.474;19.056;2023-04-07T02:09:23;100234.13;;;2.84;82.49
58769;BME280;44536;47.474;19.056;2023-04-07T02:12:29;100226.28;;;2.84;83.12
58769;BME280;44536;47.474;19.056;2023-04-07T02:15:32;100224.72;;;2.80;84.23
58769;BME280;44536;47.474;19.056;2023-04-07T02:18:36;100222.25;;;2.77;84.32
58769;BME280;44536;47.474;19.056;2023-04-07T02:21:40;100223.94;;;2.78;86.44
58769;BME280;44536;47.474;19.056;2023-04-07T02:24:43;100228.19;;;2.80;84.07
58769;BME280;44536;47.474;19.056;2023-04-07T02:27:45;100227.19;;;2.83;84.98
58769;BME280;44536;47.474;19.056;2023-04-07T02:30:48;100234.19;;;2.82;86.68
58769;BME280;44536;47.474;19.056;2023-04-07T02:33:50;100222.88;;;2.82;83.71
58769;BME280;44536;47.474;19.056;2023-04-07T02:36:52;100223.09;;;2.77;85.54
58769;BME280;44536;47.474;19.056;2023-04-07T02:39:55;100227.53;;;2.75;84.21
58769;BME280;44536;47.474;19.056;2023-04-07T02:42:57;100222.59;;;2.69;84.56
58769;BME280;44536;47.474;19.056;2023-04-07T02:46:00;100217.16;;;2.74;85.84
58769;BME280;44536;47.474;19.056;2023-04-07T02:49:04;100225.72;;;2.77;85.99
58769;BME280;44536;47.474;19.056;2023-04-07T02:52:06;100221.25;;;2.79;86.27
58769;BME280;44536;47.474;19.056;2023-04-07T02:55:09;100223.66;;;2.84;83.83
58769;BME280;44536;47.474;19.056;2023-04-07T02:58:11;100227.84;;;2.88;84.04
58769;BME280;44536;47.474;19.056;2023-04-07T03:01:14;100223.31;;;2.91;84.83
58769;BME280;44536;47.474;19.056;2023-04-07T03:04:16;100221.31;;;2.96;83.48
58769;BME280;44536;47.474;19.056;2023-04-07T03:07:19;100216.00;;;2.98;83.18
58769;BME280;44536;47.474;19.056;2023-04-07T03:10:22;100218.34;;;3.04;85.11
58769;BME280;44536;47.474;19.056;2023-04-07T03:13:25;100212.12;;;3.07;82.73
58769;BME280;44536;47.474;19.056;2023-04-07T03:16:28;100215.22;;;2.96;82.35
58769;BME280;44536;47.474;19.056;2023-04-07T03:19:32;100221.81;;;3.05;84.10
58769;BME280;44536;47.474;19.056;2023-04-07T03:22:34;100219.81;;;3.10;82.85
58769;BME280;44536;47.474;19.056;2023-04-07T03:25:37;100218.97;;;3.09;82.79
58769;BME280;44536;47.474;19.056;2023-04-07T03:28:39;100221.19;;;3.17;81.58
58769;BME280;44536;47.474;19.056;2023-04-07T03:31:43;100213.34;;;3.17;82.31
58769;BME280;44536;47.474;19.056;2023-04-07T03:34:46;100217.03;;;3.13;82.92
58769;BME280;44536;47.474;19.056;2023-04-07T03:37:49;100222.19;;;3.14;80.94
58769;BME280;44536;47.474;19.056;2023-04-07T03:40:51;100221.59;;;3.09;81.67
58769;BME280;44536;47.474;19.056;2023-04-07T03:43:55;100219.56;;;2.97;81.36
58769;BME280;44536;47.474;19.056;2023-04-07T03:46:58;100209.72;;;3.02;81.36
58769;BME280;44536;47.474;19.056;2023-04-07T03:50:00;100219.41;;;3.00;81.08
58769;BME280;44536;47.474;19.056;2023-04-07T03:53:04;100216.09;;;2.96;82.53
58769;BME280;44536;47.474;19.056;2023-04-07T03:56:08;100219.56;;;2.97;84.22
58769;BME280;44536;47.474;19.056;2023-04-07T03:59:11;100213.09;;;3.04;81.83
58769;BME280;44536;47.474;19.056;2023-04-07T04:02:14;100220.13;;;3.04;81.71
58769;BME280;44536;47.474;19.056;2023-04-07T04:05:17;100228.13;;;3.01;81.95
58769;BME280;44536;47.474;19.056;2023-04-07T04:08:20;100231.72;;;2.98;82.04
58769;BME280;44536;47.474;19.056;2023-04-07T04:11:22;100236.19;;;2.96;83.23
58769;BME280;44536;47.474;19.056;2023-04-07T04:14:26;100231.44;;;3.04;82.50
58769;BME280;44536;47.474;19.056;2023-04-07T04:17:31;100238.88;;;2.94;82.74
58769;BME280;44536;47.474;19.056;2023-04-07T04:20:33;100250.28;;;2.93;82.95
58769;BME280;44536;47.474;19.056;2023-04-07T04:23:37;100242.91;;;3.02;83.47
58769;BME280;44536;47.474;19.056;2023-04-07T04:26:39;100238.59;;;3.01;83.52
58769;BME280;44536;47.474;19.056;2023-04-07T04:29:44;100247.09;;;3.06;82.65
58769;BME280;44536;47.474;19.056;2023-04-07T04:32:47;100247.37;;;2.99;82.75
58769;BME280;44536;47.474;19.056;2023-04-07T04:35:52;100247.88;;;3.08;84.39
58769;BME280;44536;47.474;19.056;2023-04-07T04:38:54;100242.22;;;3.15;82.48
58769;BME280;44536;47.474;19.056;2023-04-07T04:41:58;100243.09;;;3.16;83.16
58769;BME280;44536;47.474;19.056;2023-04-07T04:45:03;100242.09;;;3.18;82.01
58769;BME280;44536;47.474;19.056;2023-04-07T04:48:06;100247.53;;;3.14;82.37
58769;BME280;44536;47.474;19.056;2023-04-07T04:51:08;100255.19;;;3.18;82.65
58769;BME280;44536;47.474;19.056;2023-04-07T04:54:12;100259.50;;;3.19;82.25
58769;BME280;44536;47.474;19.056;2023-04-07T04:57:14;100258.28;;;3.09;83.03
58769;BME280;44536;47.474;19.056;2023-04-07T05:00:17;100263.59;;;3.08;82.81
58769;BME280;44536;47.474;19.056;2023-04-07T05:03:21;100272.28;;;3.08;83.79
58769;BME280;44536;47.474;19.056;2023-04-07T05:06:24;100264.13;;;3.14;82.60
58769;BME280;44536;47.474;19.056;2023-04-07T05:09:30;100263.97;;;3.17;82.83
58769;BME280;44536;47.474;19.056;2023-04-07T05:12:33;100273.28;;;3.42;81.93
58769;BME280;44536;47.474;19.056;2023-04-07T05:15:35;100271.13;;;3.32;83.28
58769;BME280;44536;47.474;19.056;2023-04-07T05:18:39;100275.16;;;3.40;82.88
58769;BME280;44536;47.474;19.056;2023-04-07T05:21:43;100275.69;;;3.46;82.55
58769;BME280;44536;47.474;19.056;2023-04-07T05:24:46;100270.47;;;3.46;83.21
58769;BME280;44536;47.474;19.056;2023-04-07T05:27:49;100274.97;;;3.61;82.24
58769;BME280;44536;47.474;19.056;2023-04-07T05:30:52;100283.28;;;3.70;83.17
58769;BME280;44536;47.474;19.056;2023-04-07T05:33:55;100280.13;;;3.80;81.35
58769;BME280;44536;47.474;19.056;2023-04-07T05:36:59;100279.75;;;3.88;82.11
58769;BME280;44536;47.474;19.056;2023-04-07T05:40:01;100286.56;;;3.92;80.27
58769;BME280;44536;47.474;19.056;2023-04-07T05:43:04;100280.91;;;3.99;81.26
58769;BME280;44536;47.474;19.056;2023-04-07T05:46:07;100292.72;;;4.08;80.22
58769;BME280;44536;47.474;19.056;2023-04-07T05:49:10;100295.22;;;4.11;79.06
58769;BME280;44536;47.474;19.056;2023-04-07T05:52:22;100282.28;;;4.24;80.20
58769;BME280;44536;47.474;19.056;2023-04-07T05:55:25;100289.22;;;4.42;78.45
58769;BME280;44536;47.474;19.056;2023-04-07T05:58:28;100296.69;;;4.50;77.97
58769;BME280;44536;47.474;19.056;2023-04-07T06:01:32;100292.38;;;4.49;79.02
58769;BME280;44536;47.474;19.056;2023-04-07T06:04:34;100291.69;;;4.28;77.82
58769;BME280;44536;47.474;19.056;2023-04-07T06:07:38;100287.13;;;4.31;78.76
58769;BME280;44536;47.474;19.056;2023-04-07T06:10:42;100288.13;;;4.46;77.64
58769;BME280;44536;47.474;19.056;2023-04-07T06:13:45;100291.94;;;4.41;78.05
58769;BME280;44536;47.474;19.056;2023-04-07T06:16:48;100286.81;;;4.55;79.42
58769;BME280;44536;47.474;19.056;2023-04-07T06:19:51;100285.88;;;4.56;78.28
58769;BME280;44536;47.474;19.056;2023-04-07T06:22:54;100283.25;;;4.56;77.95
58769;BME280;44536;47.474;19.056;2023-04-07T06:25:56;100279.25;;;4.49;78.19
58769;BME280;44536;47.474;19.056;2023-04-07T06:28:59;100275.72;;;4.32;79.03
58769;BME280;44536;47.474;19.056;2023-04-07T06:32:01;100288.22;;;4.27;79.55
58769;BME280;44536;47.474;19.056;2023-04-07T06:35:04;100284.44;;;4.33;79.89
58769;BME280;44536;47.474;19.056;2023-04-07T06:38:06;100291.75;;;4.44;78.64
58769;BME280;44536;47.474;19.056;2023-04-07T06:41:09;100296.78;;;4.31;79.01
58769;BME280;44536;47.474;19.056;2023-04-07T06:44:17;100302.81;;;4.50;78.56
58769;BME280;44536;47.474;19.056;2023-04-07T06:47:20;100301.94;;;4.50;79.20
58769;BME280;44536;47.474;19.056;2023-04-07T06:50:22;100304.94;;;4.59;78.51
58769;BME280;44536;47.474;19.056;2023-04-07T06:53:25;100308.37;;;4.77;77.83
58769;BME280;44536;47.474;19.056;2023-04-07T06:56:27;100311.91;;;4.76;77.71
58769;BME280;44536;47.474;19.056;2023-04-07T06:59:30;100313.28;;;4.68;80.23
58769;BME280;44536;47.474;19.056;2023-04-07T07:02:32;100316.25;;;4.77;80.42
58769;BME280;44536;47.474;19.056;2023-04-07T07:05:35;100322.09;;;4.82;79.90
58769;BME280;44536;47.474;19.056;2023-04-07T07:08:38;100321.19;;;4.50;84.15
58769;BME280;44536;47.474;19.056;2023-04-07T07:11:40;100324.66;;;4.51;82.66
58769;BME280;44536;47.474;19.056;2023-04-07T07:14:43;100334.94;;;4.55;83.07
58769;BME280;44536;47.474;19.056;2023-04-07T07:17:45;100339.69;;;4.64;83.42
58769;BME280;44536;47.474;19.056;2023-04-07T07:20:48;100343.50;;;4.59;82.02
58769;BME280;44536;47.474;19.056;2023-04-07T07:23:50;100348.81;;;4.57;81.55
58769;BME280;44536;47.474;19.056;2023-04-07T07:26:52;100360.94;;;4.43;83.93
58769;BME280;44536;47.474;19.056;2023-04-07T07:29:55;100364.34;;;4.62;83.96
58769;BME280;44536;47.474;19.056;2023-04-07T07:32:57;100356.16;;;4.51;83.87
58769;BME280;44536;47.474;19.056;2023-04-07T07:36:00;100368.94;;;4.74;81.52
58769;BME280;44536;47.474;19.056;2023-04-07T07:39:02;100370.28;;;4.65;85.86
58769;BME280;44536;47.474;19.056;2023-04-07T07:42:04;100366.53;;;4.70;84.81
58769;BME280;44536;47.474;19.056;2023-04-07T07:45:07;100375.47;;;4.67;85.72
58769;BME280;44536;47.474;19.056;2023-04-07T07:48:10;100363.56;;;4.25;86.37
58769;BME280;44536;47.474;19.056;2023-04-07T07:51:12;100374.62;;;4.15;88.15
58769;BME280;44536;47.474;19.056;2023-04-07T07:54:14;100379.69;;;4.18;91.79
58769;BME280;44536;47.474;19.056;2023-04-07T07:57:17;100383.63;;;4.26;89.56
58769;BME280;44536;47.474;19.056;2023-04-07T08:00:19;100387.97;;;4.45;89.61
58769;BME280;44536;47.474;19.056;2023-04-07T08:03:24;100388.94;;;4.94;88.28
58769;BME280;44536;47.474;19.056;2023-04-07T08:06:26;100395.03;;;5.43;88.11
58769;BME280;44536;47.474;19.056;2023-04-07T08:09:30;100387.41;;;5.54;86.26
58769;BME280;44536;47.474;19.056;2023-04-07T08:12:35;100393.16;;;5.77;82.86
58769;BME280;44536;47.474;19.056;2023-04-07T08:15:38;100402.53;;;5.98;84.11
58769;BME280;44536;47.474;19.056;2023-04-07T08:18:40;100400.28;;;5.75;81.53
58769;BME280;44536;47.474;19.056;2023-04-07T08:21:43;100405.50;;;5.60;82.18
58769;BME280;44536;47.474;19.056;2023-04-07T08:24:45;100399.44;;;5.43;83.47
58769;BME280;44536;47.474;19.056;2023-04-07T08:27:48;100407.59;;;5.54;83.40
58769;BME280;44536;47.474;19.056;2023-04-07T08:30:51;100410.19;;;5.22;83.75
58769;BME280;44536;47.474;19.056;2023-04-07T08:33:54;100414.50;;;5.08;84.61
58769;BME280;44536;47.474;19.056;2023-04-07T08:36:59;100410.41;;;5.02;88.93
58769;BME280;44536;47.474;19.056;2023-04-07T08:40:02;100411.88;;;5.23;85.22
58769;BME280;44536;47.474;19.056;2023-04-07T08:43:08;100412.31;;;5.16;86.04
58769;BME280;44536;47.474;19.056;2023-04-07T08:46:12;100413.94;;;5.18;87.69
58769;BME280;44536;47.474;19.056;2023-04-07T08:49:16;100407.06;;;5.16;83.10
58769;BME280;44536;47.474;19.056;2023-04-07T08:52:22;100413.00;;;5.35;86.01
58769;BME280;44536;47.474;19.056;2023-04-07T08:55:29;100422.22;;;5.59;83.45
58769;BME280;44536;47.474;19.056;2023-04-07T08:58:32;100415.41;;;5.87;80.47
58769;BME280;44536;47.474;19.056;2023-04-07T09:01:36;100417.94;;;5.88;78.40
58769;BME280;44536;47.474;19.056;2023-04-07T09:04:41;100416.63;;;5.65;79.76
58769;BME280;44536;47.474;19.056;2023-04-07T09:07:44;100419.19;;;5.34;83.08
58769;BME280;44536;47.474;19.056;2023-04-07T09:10:47;100414.03;;;5.48;85.22
58769;BME280;44536;47.474;19.056;2023-04-07T09:13:49;100412.59;;;5.74;85.11
58769;BME280;44536;47.474;19.056;2023-04-07T09:16:53;100418.31;;;5.98;82.09
58769;BME280;44536;47.474;19.056;2023-04-07T09:20:00;100421.56;;;6.03;79.83
58769;BME280;44536;47.474;19.056;2023-04-07T09:23:03;100422.56;;;6.01;81.43
58769;BME280;44536;47.474;19.056;2023-04-07T09:29:26;100416.84;;;6.54;80.99
58769;BME280;44536;47.474;19.056;2023-04-07T09:32:36;100415.22;;;6.81;78.59
58769;BME280;44536;47.474;19.056;2023-04-07T09:35:52;100415.25;;;6.95;76.35
58769;BME280;44536;47.474;19.056;2023-04-07T09:38:55;100418.97;;;6.77;77.86
58769;BME280;44536;47.474;19.056;2023-04-07T09:42:09;100415.81;;;7.01;77.41
58769;BME280;44536;47.474;19.056;2023-04-07T09:45:11;100419.84;;;7.49;73.95
58769;BME280;44536;47.474;19.056;2023-04-07T09:48:25;100418.34;;;7.59;71.72
58769;BME280;44536;47.474;19.056;2023-04-07T09:51:27;100422.22;;;7.39;73.95
58769;BME280;44536;47.474;19.056;2023-04-07T09:54:37;100418.81;;;7.66;71.84
58769;BME280;44536;47.474;19.056;2023-04-07T09:57:40;100421.28;;;7.95;74.07
58769;BME280;44536;47.474;19.056;2023-04-07T10:00:44;100416.03;;;8.62;69.62
58769;BME280;44536;47.474;19.056;2023-04-07T10:03:47;100408.97;;;8.75;68.27
58769;BME280;44536;47.474;19.056;2023-04-07T10:06:51;100421.59;;;8.45;65.83
58769;BME280;44536;47.474;19.056;2023-04-07T10:09:54;100417.97;;;7.92;66.98
58769;BME280;44536;47.474;19.056;2023-04-07T10:12:56;100423.19;;;7.24;70.16
58769;BME280;44536;47.474;19.056;2023-04-07T10:16:01;100426.72;;;7.51;70.68
58769;BME280;44536;47.474;19.056;2023-04-07T10:19:05;100420.59;;;7.79;68.75
58769;BME280;44536;47.474;19.056;2023-04-07T10:22:07;100421.31;;;7.81;69.20
58769;BME280;44536;47.474;19.056;2023-04-07T10:25:15;100426.34;;;7.01;72.85
58769;BME280;44536;47.474;19.056;2023-04-07T10:28:20;100420.31;;;7.70;70.37
58769;BME280;44536;47.474;19.056;2023-04-07T10:31:24;100422.41;;;7.91;68.72
58769;BME280;44536;47.474;19.056;2023-04-07T10:38:08;100414.66;;;7.61;69.62
58769;BME280;44536;47.474;19.056;2023-04-07T10:41:32;100427.78;;;7.49;69.80
58769;BME280;44536;47.474;19.056;2023-04-07T10:44:44;100422.78;;;7.58;69.24
58769;BME280;44536;47.474;19.056;2023-04-07T10:54:19;100421.81;;;9.69;60.97
58769;BME280;44536;47.474;19.056;2023-04-07T10:57:23;100427.97;;;9.93;60.08
58769;BME280;44536;47.474;19.056;2023-04-07T11:00:25;100429.25;;;9.51;59.52
58769;BME280;44536;47.474;19.056;2023-04-07T11:03:30;100435.69;;;8.31;64.31
58769;BME280;44536;47.474;19.056;2023-04-07T11:06:33;100435.38;;;8.09;67.02
58769;BME280;44536;47.474;19.056;2023-04-07T11:09:35;100430.00;;;8.37;64.51
58769;BME280;44536;47.474;19.056;2023-04-07T11:12:38;100426.94;;;8.30;66.28
58769;BME280;44536;47.474;19.056;2023-04-07T11:15:40;100426.00;;;9.09;62.58
58769;BME280;44536;47.474;19.056;2023-04-07T11:18:44;100427.22;;;9.67;59.26
58769;BME280;44536;47.474;19.056;2023-04-07T11:21:47;100427.63;;;9.74;59.19
58769;BME280;44536;47.474;19.056;2023-04-07T11:24:50;100424.91;;;9.50;59.55
58769;BME280;44536;47.474;19.056;2023-04-07T11:27:52;100429.63;;;10.19;54.89
58769;BME280;44536;47.474;19.056;2023-04-07T11:30:55;100438.84;;;9.77;57.87
58769;BME280;44536;47.474;19.056;2023-04-07T11:34:00;100435.66;;;10.09;55.20
58769;BME280;44536;47.474;19.056;2023-04-07T11:37:24;100424.16;;;9.60;58.49
58769;BME280;44536;47.474;19.056;2023-04-07T11:40:32;100423.00;;;9.52;58.05
58769;BME280;44536;47.474;19.056;2023-04-07T11:43:35;100431.38;;;8.30;62.96
58769;BME280;44536;47.474;19.056;2023-04-07T11:47:08;100427.81;;;9.09;60.61
58769;BME280;44536;47.474;19.056;2023-04-07T11:50:10;100419.75;;;8.72;61.17
58769;BME280;44536;47.474;19.056;2023-04-07T11:53:27;100428.22;;;8.38;61.83
58769;BME280;44536;47.474;19.056;2023-04-07T11:56:46;100427.06;;;8.42;62.31
58769;BME280;44536;47.474;19.056;2023-04-07T11:59:48;100426.78;;;8.46;63.16
58769;BME280;44536;47.474;19.056;2023-04-07T12:02:51;100422.09;;;8.10;64.52
58769;BME280;44536;47.474;19.056;2023-04-07T12:05:54;100429.22;;;8.49;63.06
58769;BME280;44536;47.474;19.056;2023-04-07T12:08:57;100434.34;;;8.11;64.60
58769;BME280;44536;47.474;19.056;2023-04-07T12:11:59;100435.16;;;7.85;64.67
58769;BME280;44536;47.474;19.056;2023-04-07T12:15:01;100436.75;;;7.18;67.81
58769;BME280;44536;47.474;19.056;2023-04-07T12:18:04;100438.13;;;7.52;67.01
58769;BME280;44536;47.474;19.056;2023-04-07T12:21:07;100426.94;;;7.48;67.41
58769;BME280;44536;47.474;19.056;2023-04-07T12:24:09;100420.53;;;7.24;67.75
58769;BME280;44536;47.474;19.056;2023-04-07T12:27:11;100427.41;;;7.41;68.56
58769;BME280;44536;47.474;19.056;2023-04-07T12:30:14;100422.25;;;7.80;67.82
58769;BME280;44536;47.474;19.056;2023-04-07T12:33:16;100423.19;;;8.20;66.33
58769;BME280;44536;47.474;19.056;2023-04-07T12:36:19;100423.03;;;8.09;67.07
58769;BME280;44536;47.474;19.056;2023-04-07T12:39:22;100419.03;;;8.16;66.52
58769;BME280;44536;47.474;19.056;2023-04-07T12:42:24;100408.91;;;8.50;67.59
58769;BME280;44536;47.474;19.056;2023-04-07T12:45:27;100417.09;;;8.33;66.32
58769;BME280;44536;47.474;19.056;2023-04-07T12:48:31;100417.78;;;7.95;66.34
58769;BME280;44536;47.474;19.056;2023-04-07T12:51:34;100420.97;;;7.73;66.28
58769;BME280;44536;47.474;19.056;2023-04-07T12:54:37;100431.16;;;7.65;66.95
58769;BME280;44536;47.474;19.056;2023-04-07T12:57:40;100436.53;;;7.63;67.32
58769;BME280;44536;47.474;19.056;2023-04-07T13:00:42;100428.78;;;7.75;68.20
58769;BME280;44536;47.474;19.056;2023-04-07T13:03:44;100424.34;;;7.75;68.25
58769;BME280;44536;47.474;19.056;2023-04-07T13:06:47;100433.63;;;7.54;68.61
58769;BME280;44536;47.474;19.056;2023-04-07T13:09:49;100433.63;;;7.25;69.13
58769;BME280;44536;47.474;19.056;2023-04-07T13:12:52;100436.19;;;7.27;69.42
58769;BME280;44536;47.474;19.056;2023-04-07T13:15:54;100429.72;;;6.88;69.49
58769;BME280;44536;47.474;19.056;2023-04-07T13:18:57;100432.31;;;6.60;70.47
58769;BME280;44536;47.474;19.056;2023-04-07T13:21:59;100433.19;;;6.75;71.42
58769;BME280;44536;47.474;19.056;2023-04-07T13:25:02;100425.50;;;7.28;69.93
58769;BME280;44536;47.474;19.056;2023-04-07T13:28:04;100429.94;;;7.28;68.35
58769;BME280;44536;47.474;19.056;2023-04-07T13:31:07;100426.56;;;7.26;68.19
58769;BME280;44536;47.474;19.056;2023-04-07T13:34:13;100431.44;;;7.04;69.95
58769;BME280;44536;47.474;19.056;2023-04-07T13:37:15;100431.41;;;6.89;70.56
58769;BME280;44536;47.474;19.056;2023-04-07T13:40:19;100436.06;;;7.00;70.97
58769;BME280;44536;47.474;19.056;2023-04-07T13:43:22;100433.22;;;6.89;70.25
58769;BME280;44536;47.474;19.056;2023-04-07T13:46:25;100430.16;;;7.25;69.27
58769;BME280;44536;47.474;19.056;2023-04-07T13:49:30;100430.13;;;7.39;67.82
58769;BME280;44536;47.474;19.056;2023-04-07T13:52:32;100435.78;;;7.33;68.25
58769;BME280;44536;47.474;19.056;2023-04-07T13:55:37;100447.00;;;7.22;68.63
58769;BME280;44536;47.474;19.056;2023-04-07T13:58:39;100444.63;;;7.04;69.65
58769;BME280;44536;47.474;19.056;2023-04-07T14:01:42;100445.44;;;6.90;69.88
58769;BME280;44536;47.474;19.056;2023-04-07T14:04:45;100452.41;;;6.91;70.15
58769;BME280;44536;47.474;19.056;2023-04-07T14:07:47;100443.97;;;6.56;72.73
58769;BME280;44536;47.474;19.056;2023-04-07T14:10:50;100438.97;;;6.36;72.47
58769;BME280;44536;47.474;19.056;2023-04-07T14:13:53;100447.53;;;6.55;73.69
58769;BME280;44536;47.474;19.056;2023-04-07T14:16:58;100447.84;;;6.64;72.77
58769;BME280;44536;47.474;19.056;2023-04-07T14:20:00;100441.38;;;6.84;70.67
58769;BME280;44536;47.474;19.056;2023-04-07T14:23:03;100443.25;;;6.82;70.77
58769;BME280;44536;47.474;19.056;2023-04-07T14:26:08;100438.75;;;6.70;72.30
58769;BME280;44536;47.474;19.056;2023-04-07T14:29:12;100444.78;;;6.72;72.30
58769;BME280;44536;47.474;19.056;2023-04-07T14:32:15;100445.88;;;6.68;72.57
58769;BME280;44536;47.474;19.056;2023-04-07T14:35:18;100451.50;;;6.62;72.12
58769;BME280;44536;47.474;19.056;2023-04-07T14:38:20;100443.91;;;6.72;73.20
58769;BME280;44536;47.474;19.056;2023-04-07T14:41:27;100449.06;;;7.03;70.20
58769;BME280;44536;47.474;19.056;2023-04-07T14:44:29;100451.03;;;7.00;69.48
58769;BME280;44536;47.474;19.056;2023-04-07T14:47:32;100456.16;;;6.87;70.41
58769;BME280;44536;47.474;19.056;2023-04-07T14:50:35;100460.75;;;6.69;71.79
58769;BME280;44536;47.474;19.056;2023-04-07T14:53:39;100455.62;;;6.52;72.59
58769;BME280;44536;47.474;19.056;2023-04-07T14:56:43;100457.19;;;6.70;71.63
58769;BME280;44536;47.474;19.056;2023-04-07T14:59:46;100454.47;;;6.72;71.87
58769;BME280;44536;47.474;19.056;2023-04-07T15:02:48;100450.63;;;6.91;70.97
58769;BME280;44536;47.474;19.056;2023-04-07T15:05:51;100450.13;;;6.85;71.69
58769;BME280;44536;47.474;19.056;2023-04-07T15:08:53;100449.56;;;6.80;71.38
58769;BME280;44536;47.474;19.056;2023-04-07T15:11:56;100457.03;;;6.57;73.72
58769;BME280;44536;47.474;19.056;2023-04-07T15:14:59;100452.16;;;6.36;76.60
58769;BME280;44536;47.474;19.056;2023-04-07T15:18:02;100452.72;;;6.11;79.24
58769;BME280;44536;47.474;19.056;2023-04-07T15:21:06;100460.34;;;6.15;77.86
58769;BME280;44536;47.474;19.056;2023-04-07T15:24:09;100464.66;;;6.32;76.86
58769;BME280;44536;47.474;19.056;2023-04-07T15:27:11;100470.41;;;6.39;74.67
58769;BME280;44536;47.474;19.056;2023-04-07T15:30:13;100453.94;;;6.35;75.06
58769;BME280;44536;47.474;19.056;2023-04-07T15:33:16;100458.19;;;6.38;74.29
58769;BME280;44536;47.474;19.056;2023-04-07T15:36:19;100461.00;;;6.35;75.10
58769;BME280;44536;47.474;19.056;2023-04-07T15:39:23;100452.59;;;6.28;76.51
58769;BME280;44536;47.474;19.056;2023-04-07T15:42:25;100460.47;;;6.44;75.18
58769;BME280;44536;47.474;19.056;2023-04-07T15:45:27;100463.78;;;6.31;78.37
58769;BME280;44536;47.474;19.056;2023-04-07T15:48:30;100460.56;;;6.26;78.31
58769;BME280;44536;47.474;19.056;2023-04-07T15:51:32;100465.22;;;6.37;79.57
58769;BME280;44536;47.474;19.056;2023-04-07T15:54:34;100457.50;;;6.34;79.91
58769;BME280;44536;47.474;19.056;2023-04-07T15:57:37;100461.41;;;6.43;77.99
58769;BME280;44536;47.474;19.056;2023-04-07T16:00:39;100463.97;;;6.28;78.56
58769;BME280;44536;47.474;19.056;2023-04-07T16:03:42;100463.63;;;6.35;78.60
58769;BME280;44536;47.474;19.056;2023-04-07T16:06:44;100469.59;;;6.07;77.25
58769;BME280;44536;47.474;19.056;2023-04-07T16:09:47;100473.00;;;5.93;77.66
58769;BME280;44536;47.474;19.056;2023-04-07T16:12:49;100477.41;;;5.92;77.56
58769;BME280;44536;47.474;19.056;2023-04-07T16:15:57;100473.84;;;5.93;78.45
58769;BME280;44536;47.474;19.056;2023-04-07T16:19:00;100476.06;;;6.01;80.52
58769;BME280;44536;47.474;19.056;2023-04-07T16:22:02;100476.06;;;6.17;76.84
58769;BME280;44536;47.474;19.056;2023-04-07T16:25:05;100476.22;;;5.98;77.64
58769;BME280;44536;47.474;19.056;2023-04-07T16:28:07;100480.34;;;5.86;79.42